Aviation Digital Data Service (ADDS)

Output produced by METARs form (0411 UTC 24 January 2019)
found at http://www.aviationweather.gov/metar/data/
 
Forecast for: PGUM (AGANA , GU, US)
Text: PGUM 240319Z 2403/2506 07015G22KT P6SM VCSH FEW018 SCT025 BKN050
Forecast period: 0300 to 2300 UTC 24 January 2019
Forecast type: FROM: standard forecast or significant change
Winds: from the ENE (70 degrees) at 17 MPH (15 knots; 7.7 m/s)
gusting to 25 MPH (22 knots; 11.3 m/s)
Visibility: 6 or more miles 10+ km)
Ceiling: 5000 feet AGL
Clouds: few clouds at 1800 feet AGL
scattered clouds at 2500 feet AGL
broken clouds at 5000 feet AGL
Weather: VCSH  (showers in vicinity)
Text: TEMPO 2408/2412 4SM SHRA SCT018 OVC025
Forecast period: 0800 to 1200 UTC 24 January 2019
Forecast type: TEMPORARY: The following changes expected for less than half the time period
Visibility: 4 miles (6 km)
Ceiling: 2500 feet AGL
Clouds: scattered clouds at 1800 feet AGL
overcast cloud deck at 2500 feet AGL
Weather: SHRA  (rain showers)
Text: FM242300 10011KT P6SM VCSH SCT020 SCT050
Forecast period: 2300 UTC 24 January 2019 to 0600 UTC 25 January 2019
Forecast type: FROM: standard forecast or significant change
Winds: from the E (100 degrees) at 13 MPH (11 knots; 5.7 m/s)
Visibility: 6 or more miles 10+ km)
Ceiling: at least 12,000 feet AGL
Clouds: scattered clouds at 2000 feet AGL
scattered clouds at 5000 feet AGL
Weather: VCSH  (showers in vicinity)